地図

経路データ

SID SEASON NUMBER BASIN SUBBASIN NAME ISO_TIME NATURE LAT LON WMO_WIND WMO_PRES WMO_AGENCY TRACK_TYPE DIST2LAND LANDFALL IFLAG USA_AGENCY USA_ATCF_ID USA_LAT USA_LON USA_RECORD USA_STATUS USA_WIND USA_PRES USA_SSHS USA_R34_NE USA_R34_SE USA_R34_SW USA_R34_NW USA_R50_NE USA_R50_SE USA_R50_SW USA_R50_NW USA_R64_NE USA_R64_SE USA_R64_SW USA_R64_NW USA_POCI USA_ROCI USA_RMW USA_EYE TOKYO_LAT TOKYO_LON TOKYO_GRADE TOKYO_WIND TOKYO_PRES TOKYO_R50_DIR TOKYO_R50_LONG TOKYO_R50_SHORT TOKYO_R30_DIR TOKYO_R30_LONG TOKYO_R30_SHORT TOKYO_LAND CMA_LAT CMA_LON CMA_CAT CMA_WIND CMA_PRES HKO_LAT HKO_LON HKO_CAT HKO_WIND HKO_PRES NEWDELHI_LAT NEWDELHI_LON NEWDELHI_GRADE NEWDELHI_WIND NEWDELHI_PRES NEWDELHI_CI NEWDELHI_DP NEWDELHI_POCI REUNION_LAT REUNION_LON REUNION_TYPE REUNION_WIND REUNION_PRES REUNION_TNUM REUNION_CI REUNION_RMW REUNION_R34_NE REUNION_R34_SE REUNION_R34_SW REUNION_R34_NW REUNION_R50_NE REUNION_R50_SE REUNION_R50_SW REUNION_R50_NW REUNION_R64_NE REUNION_R64_SE REUNION_R64_SW REUNION_R64_NW BOM_LAT BOM_LON BOM_TYPE BOM_WIND BOM_PRES BOM_TNUM BOM_CI BOM_RMW BOM_R34_NE BOM_R34_SE BOM_R34_SW BOM_R34_NW BOM_R50_NE BOM_R50_SE BOM_R50_SW BOM_R50_NW BOM_R64_NE BOM_R64_SE BOM_R64_SW BOM_R64_NW BOM_ROCI BOM_POCI BOM_EYE BOM_POS_METHOD BOM_PRES_METHOD NADI_LAT NADI_LON NADI_CAT NADI_WIND NADI_PRES WELLINGTON_LAT WELLINGTON_LON WELLINGTON_WIND WELLINGTON_PRES DS824_LAT DS824_LON DS824_STAGE DS824_WIND DS824_PRES TD9636_LAT TD9636_LON TD9636_STAGE TD9636_WIND TD9636_PRES TD9635_LAT TD9635_LON TD9635_WIND TD9635_PRES TD9635_ROCI NEUMANN_LAT NEUMANN_LON NEUMANN_CLASS NEUMANN_WIND NEUMANN_PRES MLC_LAT MLC_LON MLC_CLASS MLC_WIND MLC_PRES USA_GUST BOM_GUST BOM_GUST_PER REUNION_GUST REUNION_GUST_PER USA_SEAHGT USA_SEARAD_NE USA_SEARAD_SE USA_SEARAD_SW USA_SEARAD_NW STORM_SPEED STORM_DIR
1984225N18142 1984 58 WP MM HOLLY 1984-08-12 00:00:00 NR 17.7000 141.900 main 1856 1839 __________O___ -1 17.7000 141.900 0 5 289
1984225N18142 1984 58 WP MM HOLLY 1984-08-12 03:00:00 NR 17.7736 141.672 main 1839 1828 __________P___ -1 17.7736 141.672 0 5 289
1984225N18142 1984 58 WP MM HOLLY 1984-08-12 06:00:00 NR 17.8477 141.445 main 1818 1801 __________P___ -1 17.8477 141.445 0 5 289
1984225N18142 1984 58 WP MM HOLLY 1984-08-12 09:00:00 NR 17.9229 141.221 main 1801 1781 __________P___ -1 17.9229 141.221 0 5 290
1984225N18142 1984 58 WP MM HOLLY 1984-08-12 12:00:00 NR 18.0000 141.000 main 1781 1760 __________O___ -1 18.0000 141.000 0 4 291
1984225N18142 1984 58 WP MM HOLLY 1984-08-12 15:00:00 NR 18.0790 140.785 main 1760 1740 __________P___ -1 18.0790 140.785 0 4 291
1984225N18142 1984 58 WP MM HOLLY 1984-08-12 18:00:00 NR 18.1575 140.577 main 1740 1730 __________P___ -1 18.1575 140.577 0 4 292
1984225N18142 1984 58 WP MM HOLLY 1984-08-12 21:00:00 NR 18.2322 140.382 main 1730 1709 __________P___ -1 18.2322 140.382 0 4 292
1984225N18142 1984 58 WP MM HOLLY 1984-08-13 00:00:00 NR 18.3000 140.200 main 1709 1689 __________O___ -1 18.3000 140.200 0 3 291
1984225N18142 1984 58 WP MM HOLLY 1984-08-13 03:00:00 NR 18.3530 140.040 main 1689 1684 __________P___ -1 18.3530 140.040 0 3 289
1984225N18142 1984 58 WP MM HOLLY 1984-08-13 06:00:00 NR 18.3998 139.892 main 1684 1679 __________P___ -1 18.3998 139.892 0 3 289
1984225N18142 1984 58 WP MM HOLLY 1984-08-13 09:00:00 NR 18.4468 139.749 main 1673 1658 __________P___ -1 18.4468 139.749 0 3 290
1984225N18142 1984 58 WP MM HOLLY 1984-08-13 12:00:00 NR 18.5000 139.600 main 1658 1643 __________O___ -1 18.5000 139.600 0 3 292
1984225N18142 1984 58 WP MM HOLLY 1984-08-13 15:00:00 NR 18.5595 139.456 main 1643 1633 __________P___ -1 18.5595 139.456 0 3 294
1984225N18142 1984 58 WP MM HOLLY 1984-08-13 18:00:00 NR 18.6271 139.302 main 1633 1612 __________P___ -1 18.6271 139.302 0 3 295
1984225N18142 1984 58 WP MM HOLLY 1984-08-13 21:00:00 NR 18.7063 139.122 main 1612 1592 __________P___ -1 18.7063 139.122 0 4 294
1984225N18142 1984 58 WP MM HOLLY 1984-08-14 00:00:00 NR 18.8000 138.900 main 1592 1572 __________O___ -1 18.8000 138.900 0 5 293
1984225N18142 1984 58 WP MM HOLLY 1984-08-14 03:00:00 NR 18.9024 138.638 main 1567 1547 __________P___ -1 18.9024 138.638 0 6 292
1984225N18142 1984 58 WP MM HOLLY 1984-08-14 06:00:00 NR 19.0197 138.332 main 1542 1517 __________P___ -1 19.0197 138.332 0 7 292
1984225N18142 1984 58 WP MM HOLLY 1984-08-14 09:00:00 NR 19.1522 137.985 main 1508 1478 __________P___ -1 19.1522 137.985 0 7 292
1984225N18142 1984 58 WP MM HOLLY 1984-08-14 12:00:00 NR 19.3000 137.600 main 1478 1450 O_________O___ jtwc_wp WP111984 19.3000 137.600 25 -1 19.3000 137.600 1 25 8 291
1984225N18142 1984 58 WP MM HOLLY 1984-08-14 15:00:00 NR 19.4422 137.194 main 1450 1412 P_________P___ WP111984 19.4376 137.220 27 -1 19.4445 137.182 1 26 8 291
1984225N18142 1984 58 WP MM HOLLY 1984-08-14 18:00:00 NR 19.6030 136.760 main 1412 1371 O_________P___ jtwc_wp WP111984 19.6000 136.800 30 -1 19.6052 136.730 1 27 9 292
1984225N18142 1984 58 WP MM HOLLY 1984-08-14 21:00:00 NR 19.7941 136.289 main 1371 1330 P_________P___ WP111984 19.8000 136.315 30 -1 19.7882 136.263 1 28 10 294
1984225N18142 1984 58 WP MM HOLLY 1984-08-15 00:00:00 NR 20.0000 135.800 main 1330 1291 O_________O___ jtwc_wp WP111984 20.0000 135.800 30 -1 20.0000 135.800 1 30 10 293
1984225N18142 1984 58 WP MM HOLLY 1984-08-15 03:00:00 NR 20.1749 135.318 main 1291 1249 P_________P___ WP111984 20.1200 135.277 32 -1 20.2298 135.359 1 31 12 293
1984225N18142 1984 58 WP MM HOLLY 1984-08-15 06:00:00 TS 20.4621 134.656 996 tokyo main 1239 1191 OO________P___ jtwc_wp WP111984 20.3000 134.800 35 0 21.0000 133.000 2 996 0 0 0 20.4897 134.927 1 32 13 301
1984225N18142 1984 58 WP MM HOLLY 1984-08-15 09:00:00 TS 20.8188 134.163 main 1191 1134 PP________P___ WP111984 20.6623 134.427 35 0 21.2100 132.948 2 996 0 0 20.7798 134.506 1 33 12 310
1984225N18142 1984 58 WP MM HOLLY 1984-08-15 12:00:00 TS 21.2083 133.708 996 tokyo main 1134 1083 OOO_______O___ jtwc_wp WP111984 21.1000 134.100 35 0 21.4000 132.900 2 996 0 0 0 21.5000 133.000 1 29 996 21.1000 134.100 2 35 10 318
1984225N18142 1984 58 WP MM HOLLY 1984-08-15 15:00:00 TS 21.5939 133.416 main 1083 1046 PPP_______P___ WP111984 21.5074 133.757 37 0 21.5575 132.857 2 995 0 0 22.0300 133.261 1 33 994 21.4986 133.711 2 36 9 328
1984225N18142 1984 58 WP MM HOLLY 1984-08-15 18:00:00 TS 21.9417 133.215 994 tokyo main 1046 1008 OOOO______P___ jtwc_wp WP111984 21.9000 133.400 40 0 21.7000 132.800 2 994 0 0 0 22.5000 133.300 2 38 993 21.5000 133.400 TD 30 997 21.9169 133.336 2 37 8 327
1984225N18142 1984 58 WP MM HOLLY 1984-08-15 21:00:00 TS 22.2602 132.948 main 995 967 PPPP______P___ WP111984 22.2950 133.008 40 0 21.8424 132.730 2 992 0 0 22.8478 132.976 2 43 991 21.7675 133.170 TD 32 995 22.3018 132.968 2 38 8 314
1984225N18142 1984 58 WP MM HOLLY 1984-08-16 00:00:00 TS 22.4632 132.626 55 990 tokyo main 967 951 OOOO______O___ jtwc_wp WP111984 22.6000 132.600 40 0 22.0000 132.600 4 55 990 9 50 50 9 250 250 0 23.0000 132.500 3 48 990 22.0000 132.900 TS 35 994 22.6000 132.600 2 40 7 296
1984225N18142 1984 58 WP MM HOLLY 1984-08-16 03:00:00 TS 22.5549 132.300 main 951 946 PPPP______P___ WP111984 22.7524 132.192 42 0 22.2075 132.388 4 55 990 9 50 50 9 250 250 22.8948 132.150 3 48 989 22.1725 132.565 TS 37 992 22.7474 132.208 2 41 6 282
1984225N18142 1984 58 WP MM HOLLY 1984-08-16 06:00:00 TS 22.6010 131.944 55 990 tokyo main 945 942 OOOO______P___ jtwc_wp WP111984 22.8000 131.800 45 0 22.4000 132.100 4 55 990 9 50 50 9 250 250 0 22.7000 131.800 3 48 989 22.3000 132.200 TS 40 990 22.8050 131.819 2 42 7 277
1984225N18142 1984 58 WP MM HOLLY 1984-08-16 09:00:00 TS 22.6320 131.579 main 942 928 PPPP______P___ WP111984 22.8149 131.435 45 0 22.5150 131.772 4 55 990 9 50 35 9 275 275 22.6126 131.385 3 48 987 22.4074 131.857 TS 42 988 22.8100 131.445 2 43 7 275
1984225N18142 1984 58 WP MM HOLLY 1984-08-16 12:00:00 TS 22.6600 131.220 55 990 tokyo main 928 927 OOOO______O___ jtwc_wp WP111984 22.8000 131.100 45 0 22.6000 131.400 4 55 990 4 50 20 9 300 300 0 22.6000 131.000 3 48 986 22.5000 131.500 TS 45 986 22.8000 131.100 2 45 6 279
1984225N18142 1984 58 WP MM HOLLY 1984-08-16 15:00:00 TS 22.7293 130.883 main 927 905 PPPP______P___ WP111984 22.7924 130.785 47 0 22.7076 130.993 4 55 987 4 50 25 9 300 300 22.7147 130.750 3 48 985 22.6000 131.100 TS 47 985 22.8318 130.788 2 47 6 282
1984225N18142 1984 58 WP MM HOLLY 1984-08-16 18:00:00 TS 22.7914 130.561 55 985 tokyo main 905 875 OOOO______P___ jtwc_wp WP111984 22.8000 130.500 50 0 22.8000 130.600 4 55 985 4 50 30 9 300 300 0 22.8000 130.500 3 48 985 22.7000 130.700 STS 50 985 22.8571 130.505 2 50 6 277
1984225N18142 1984 58 WP MM HOLLY 1984-08-16 21:00:00 TS 22.8073 130.237 main 865 846 PPPP______P___ WP111984 22.8499 130.243 52 0 22.8648 130.285 4 57 985 4 50 40 9 300 300 22.6353 130.069 3 53 984 22.8074 130.342 STS 52 983 22.8788 130.244 2 52 6 273
1984225N18142 1984 58 WP MM HOLLY 1984-08-17 00:00:00 TS 22.8200 129.940 60 985 tokyo main 836 813 OOOO______O___ jtwc_wp WP111984 22.9000 130.000 55 0 22.9000 130.000 4 60 985 9 50 50 9 300 300 0 22.5000 129.700 3 58 983 22.9000 130.000 STS 55 982 22.9000 130.000 2 55 5 277
1984225N18142 1984 58 WP MM HOLLY 1984-08-17 03:00:00 TS 22.8648 129.699 main 813 793 PPPP______P___ WP111984 22.9000 129.742 57 0 22.8999 129.700 4 60 982 9 65 65 9 400 300 22.6622 129.642 3 58 980 22.9574 129.650 STS 57 981 22.9045 129.760 2 56 4 283
1984225N18142 1984 58 WP MM HOLLY 1984-08-17 06:00:00 TS 22.9224 129.467 60 980 tokyo main 793 761 OOOO______P___ jtwc_wp WP111984 22.9000 129.500 60 0 22.9000 129.400 4 60 980 9 80 80 3 500 300 0 22.9000 129.600 3 58 978 23.0000 129.300 STS 60 980 22.9122 129.535 2 57 5 283
1984225N18142 1984 58 WP MM HOLLY 1984-08-17 09:00:00 TS 22.9733 129.180 main 761 731 PPPP______P___ WP111984 22.9349 129.292 60 0 22.9350 129.092 4 62 977 9 102 102 3 500 300 23.0228 129.273 3 63 976 23.0350 128.927 STS 62 977 22.9389 129.317 2 58 5 283
1984225N18142 1984 58 WP MM HOLLY 1984-08-17 12:00:00 TS 23.0400 128.900 65 975 tokyo main 731 708 OOOO______O___ jtwc_wp WP111984 23.0000 129.100 60 0 23.0000 128.800 5 65 975 9 125 125 3 500 300 0 23.1000 128.900 4 68 975 23.1000 128.600 T 65 975 23.0000 129.100 2 60 5 287
1984225N18142 1984 58 WP MM HOLLY 1984-08-17 15:00:00 TS 23.1181 128.681 main 708 686 PPPP______P___ WP111984 23.0774 128.907 60 0 23.0849 128.542 5 65 972 9 162 125 3 500 300 23.1273 128.692 4 68 973 23.2274 128.377 T 65 972 23.0732 128.887 2 61 4 297
1984225N18142 1984 58 WP MM HOLLY 1984-08-17 18:00:00 TS 23.2374 128.474 65 970 tokyo main 686 651 OOOO______P___ jtwc_wp WP111984 23.2000 128.700 60 0 23.2000 128.300 5 65 970 3 200 125 3 500 300 0 23.2000 128.500 4 68 971 23.4000 128.200 T 65 970 23.1872 128.672 2 62 5 304
1984225N18142 1984 58 WP MM HOLLY 1984-08-17 21:00:00 TS 23.4015 128.229 main 651 627 PPPP______P___ WP111984 23.3550 128.465 62 0 23.3350 128.035 5 65 970 3 200 125 3 500 300 23.3751 128.200 4 68 971 23.5850 128.000 T 65 970 23.3576 128.446 2 63 6 312
1984225N18142 1984 58 WP MM HOLLY 1984-08-18 00:00:00 TS 23.6400 127.980 65 970 tokyo main 627 599 OOOO______O___ jtwc_wp WP111984 23.6000 128.200 65 1 23.5000 127.800 5 65 970 3 200 125 3 500 300 0 23.7000 127.900 4 68 971 23.8000 127.800 T 65 970 23.6000 128.200 3 65 7 322
1984225N18142 1984 58 WP MM HOLLY 1984-08-18 03:00:00 TS 23.9680 127.751 main 596 560 PPPP______P___ WP111984 23.9700 127.908 65 1 23.6249 127.650 5 65 970 3 200 125 3 500 400 24.2574 127.693 4 68 971 24.0350 127.592 T 65 970 23.9527 127.910 3 65 8 329
1984225N18142 1984 58 WP MM HOLLY 1984-08-18 06:00:00 TS 24.3541 127.520 65 970 tokyo main 559 535 OOOO______P___ jtwc_wp WP111984 24.4000 127.600 65 1 23.9000 127.500 5 65 970 3 200 125 9 500 500 0 24.8000 127.500 4 68 972 24.3000 127.400 T 65 970 24.3703 127.601 3 65 9 331
1984225N18142 1984 58 WP MM HOLLY 1984-08-18 09:00:00 TS 24.7580 127.267 main 534 503 PPPP______P___ WP111984 24.8224 127.307 65 1 24.5501 127.251 5 65 970 3 200 125 9 500 500 25.0301 127.235 4 68 972 24.5849 127.250 T 65 972 24.8027 127.292 3 65 9 330
1984225N18142 1984 58 WP MM HOLLY 1984-08-18 12:00:00 TS 25.1400 127.020 65 970 tokyo main 503 484 OOOO______O___ jtwc_wp WP111984 25.2000 127.000 65 1 25.2000 127.000 5 65 970 3 200 125 9 500 500 0 25.2000 127.000 4 68 972 24.9000 127.100 T 65 975 25.2000 127.000 4 65 8 328
1984225N18142 1984 58 WP MM HOLLY 1984-08-18 15:00:00 TS 25.4455 126.792 main 484 466 PPPP______P___ WP111984 25.4727 126.620 65 1 25.4674 126.842 5 65 970 3 200 162 9 500 500 25.5724 126.900 4 68 970 25.2425 126.900 T 65 972 25.4728 126.700 4 66 7 325
1984225N18142 1984 58 WP MM HOLLY 1984-08-18 18:00:00 TS 25.7015 126.586 65 970 tokyo main 468 450 OOOO______P___ jtwc_wp WP111984 25.7000 126.300 65 1 25.6000 126.700 5 65 970 9 200 200 9 500 500 0 25.9000 126.800 4 68 968 25.6000 126.700 T 65 970 25.7075 126.430 4 67 6 321
1984225N18142 1984 58 WP MM HOLLY 1984-08-18 21:00:00 TS 25.9117 126.377 main 452 438 PPPP______P___ WP111984 25.9424 126.132 67 1 25.7701 126.478 5 65 967 9 200 200 9 500 500 25.9502 126.527 4 68 965 25.9575 126.528 T 65 967 25.9384 126.220 4 68 5 325
1984225N18142 1984 58 WP MM HOLLY 1984-08-19 00:00:00 TS 26.1400 126.240 65 965 tokyo main 438 438 OOOO______O___ jtwc_wp WP111984 26.2000 126.100 70 1 26.0000 126.300 5 65 965 9 200 200 9 500 500 0 26.0000 126.300 4 68 963 26.3000 126.400 T 65 965 26.2000 126.100 4 70 6 347
1984225N18142 1984 58 WP MM HOLLY 1984-08-19 03:00:00 TS 26.4453 126.235 main 448 448 PPPP______P___ WP111984 26.4700 126.170 70 1 26.3624 126.255 5 67 962 9 200 200 9 500 500 26.2749 126.283 4 68 965 26.5925 126.335 T 67 965 26.5268 126.133 4 71 7 6
1984225N18142 1984 58 WP MM HOLLY 1984-08-19 06:00:00 TS 26.8180 126.311 70 960 tokyo main 474 474 OOOO______P___ jtwc_wp WP111984 26.8000 126.300 70 1 26.8000 126.300 5 70 960 9 200 200 9 500 500 0 26.7000 126.400 4 68 967 26.9000 126.300 T 70 965 26.8901 126.253 4 72 8 11
1984225N18142 1984 58 WP MM HOLLY 1984-08-19 09:00:00 TS 27.2532 126.419 main 479 470 PPPP______P___ WP111984 27.2275 126.430 72 1 27.2425 126.400 5 70 960 9 200 200 9 500 500 27.2351 126.622 4 68 966 27.2775 126.250 T 70 965 27.2832 126.396 4 73 9 11
1984225N18142 1984 58 WP MM HOLLY 1984-08-19 12:00:00 TS 27.7200 126.500 70 960 tokyo main 470 455 OOOO______O___ jtwc_wp WP111984 27.7000 126.500 75 1 27.7000 126.500 5 70 960 9 200 200 9 500 500 0 27.8000 126.800 4 68 966 27.7000 126.200 T 70 965 27.7000 126.500 4 75 9 3
1984225N18142 1984 58 WP MM HOLLY 1984-08-19 15:00:00 TS 28.1673 126.457 main 452 432 PPPP______P___ WP111984 28.1500 126.423 75 1 28.1425 126.530 5 70 962 9 200 200 9 500 500 28.2650 126.746 4 68 965 28.1425 126.135 T 70 965 28.1366 126.452 4 75 9 353
1984225N18142 1984 58 WP MM HOLLY 1984-08-19 18:00:00 TS 28.6185 126.372 70 965 tokyo main 432 417 OOOO______P___ jtwc_wp WP111984 28.6000 126.300 75 1 28.6000 126.500 5 70 965 9 200 200 9 500 500 0 28.7000 126.600 4 68 965 28.6000 126.100 T 70 965 28.5926 126.360 4 75 9 352
1984225N18142 1984 58 WP MM HOLLY 1984-08-19 21:00:00 TS 29.0895 126.306 main 417 412 PPPP______P___ WP111984 29.0575 126.235 75 1 29.1150 126.400 5 70 965 9 175 175 9 450 450 29.1650 126.500 4 68 965 29.0575 126.135 T 70 965 29.0522 126.262 4 75 9 354
1984225N18142 1984 58 WP MM HOLLY 1984-08-20 00:00:00 TS 29.5400 126.260 70 965 tokyo main 412 368 OOOO______O___ jtwc_wp WP111984 29.5000 126.200 75 1 29.6000 126.300 5 70 965 9 150 150 9 400 400 0 29.6000 126.400 4 68 965 29.5000 126.200 T 70 965 29.5000 126.200 4 75 8 355
1984225N18142 1984 58 WP MM HOLLY 1984-08-20 03:00:00 TS 29.9249 126.228 main 368 323 PPPP______P___ WP111984 29.9075 126.170 75 1 29.9575 126.270 5 70 965 9 150 150 9 400 400 29.9500 126.263 4 68 965 29.9075 126.243 T 70 965 29.9019 126.192 4 75 8 0
1984225N18142 1984 58 WP MM HOLLY 1984-08-20 06:00:00 TS 30.2984 126.246 70 965 tokyo main 323 278 OOOO______P___ jtwc_wp WP111984 30.3000 126.200 75 1 30.3000 126.300 5 70 965 9 150 150 9 400 400 0 30.3000 126.200 4 68 965 30.3000 126.300 T 70 965 30.2919 126.231 4 75 8 7
1984225N18142 1984 58 WP MM HOLLY 1984-08-20 09:00:00 TS 30.7112 126.338 main 278 234 PPPP______P___ WP111984 30.7075 126.320 75 1 30.7349 126.363 5 70 965 9 150 150 9 475 400 30.7350 126.297 4 68 966 30.6925 126.378 T 70 965 30.6861 126.330 4 75 9 14
1984225N18142 1984 58 WP MM HOLLY 1984-08-20 12:00:00 TS 31.1400 126.500 70 965 tokyo main 234 189 OOOO______O___ jtwc_wp WP111984 31.1000 126.500 75 1 31.2000 126.500 5 70 965 9 150 150 4 550 400 0 31.2000 126.500 4 68 967 31.1000 126.500 T 70 965 31.1000 126.500 4 75 9 20
1984225N18142 1984 58 WP MM HOLLY 1984-08-20 15:00:00 TS 31.5529 126.689 main 178 136 PPPP______P___ WP111984 31.4198 126.656 72 1 31.6426 126.727 5 70 965 9 150 150 4 550 400 31.6423 126.706 4 68 969 31.5273 126.656 T 67 967 31.5324 126.702 4 72 9 24
1984225N18142 1984 58 WP MM HOLLY 1984-08-20 18:00:00 TS 31.9977 126.956 70 965 tokyo main 138 100 OOOO______P___ jtwc_wp WP111984 31.8000 126.900 70 1 32.1000 127.000 5 70 965 9 150 150 8 550 400 0 32.1000 127.000 4 68 972 32.0000 126.900 T 65 970 31.9886 126.981 4 70 11 28
1984225N18142 1984 58 WP MM HOLLY 1984-08-20 21:00:00 TS 32.5130 127.297 main 100 85 PPPP______P___ WP111984 32.3625 127.297 67 1 32.5920 127.199 5 67 967 9 137 137 8 550 400 32.5924 127.405 4 68 973 32.5423 127.240 T 65 972 32.4756 127.344 4 67 13 32
1984225N18142 1984 58 WP MM HOLLY 1984-08-21 00:00:00 TS 33.0600 127.740 65 970 tokyo main 86 86 OOOO______O___ jtwc_wp WP111984 33.0000 127.800 65 1 33.1000 127.500 5 65 970 9 125 125 4 550 400 0 33.1000 127.900 4 68 975 33.1000 127.700 T 65 975 33.0000 127.800 4 65 13 37
1984225N18142 1984 58 WP MM HOLLY 1984-08-21 03:00:00 TS 33.5826 128.243 main 117 86 PPPP______P___ WP111984 33.5995 128.306 62 0 33.5846 128.004 5 65 970 9 137 137 4 550 400 33.5916 128.384 4 68 975 33.5995 128.234 T 62 977 33.5377 128.288 4 62 14 42
1984225N18142 1984 58 WP MM HOLLY 1984-08-21 06:00:00 TS 34.1228 128.875 65 970 tokyo main 90 62 OOOO______P___ jtwc_wp WP111984 34.2000 128.900 60 0 34.1000 128.700 5 65 970 9 150 150 4 550 400 0 34.1000 129.000 4 68 975 34.1000 128.900 STS 60 980 34.1138 128.876 4 60 16 47
1984225N18142 1984 58 WP MM HOLLY 1984-08-21 09:00:00 TS 34.6778 129.640 main 63 63 PPPP______P___ WP111984 34.7843 129.584 57 0 34.6544 129.520 5 62 972 9 137 137 4 475 350 34.6052 129.842 4 63 975 34.6118 129.677 STS 57 980 34.7332 129.576 4 57 18 49
1984225N18142 1984 58 WP MM HOLLY 1984-08-21 12:00:00 TS 35.3000 130.540 60 975 tokyo main 100 100 OOOO______O___ jtwc_wp WP111984 35.4000 130.400 55 0 35.3000 130.500 4 60 975 9 125 125 4 400 300 0 35.2000 130.800 3 58 976 35.2000 130.600 STS 55 980 35.4000 130.400 2 55 20 49
1984225N18142 1984 58 WP MM HOLLY 1984-08-21 15:00:00 TS 36.0196 131.538 main 119 112 PPPP______P___ WP111984 36.0693 131.334 52 0 36.0552 131.621 4 55 977 9 4 350 250 35.9612 131.714 3 58 977 35.8975 131.664 STS 52 980 36.1148 131.357 2 52 23 48
1984225N18142 1984 58 WP MM HOLLY 1984-08-21 18:00:00 TS 36.8107 132.649 50 980 tokyo main 147 147 OOOO______P___ jtwc_wp WP111984 36.8000 132.400 50 0 36.9000 132.800 4 50 980 0 4 300 200 0 36.8000 132.700 3 58 978 36.7000 132.800 STS 50 980 36.8642 132.428 2 50 25 49
1984225N18142 1984 58 WP MM HOLLY 1984-08-21 21:00:00 TS 37.6359 133.842 main 229 200 PPPP______P___ WP111984 37.5876 133.567 47 0 37.7781 133.989 4 50 980 0 4 300 200 37.5784 133.866 3 58 979 37.5774 133.938 STS 47 980 37.6313 133.586 2 47 25 47
1984225N18142 1984 58 WP MM HOLLY 1984-08-22 00:00:00 TS 38.5143 134.971 50 980 tokyo main 199 199 OOOO______O___ jtwc_wp WP111984 38.4000 134.800 45 0 38.7000 135.000 4 50 980 0 4 300 200 0 38.4000 135.000 3 58 980 38.5000 135.000 TS 45 980 38.4000 134.800 2 45 24 40
1984225N18142 1984 58 WP MM HOLLY 1984-08-22 03:00:00 TS 39.4975 135.810 main 249 249 _PPP__________ WP111984 -1 39.6930 135.628 4 47 980 0 4 325 250 39.3936 135.917 3 53 981 39.4058 135.884 TS 45 980 2 22 32
1984225N18142 1984 58 WP MM HOLLY 1984-08-22 06:00:00 TS 40.4091 136.482 45 980 tokyo main 276 241 _OOO__________ -1 40.6000 136.100 3 45 980 0 8 350 300 0 40.3000 136.700 3 48 983 40.3000 136.700 TS 45 980 2 19 32
1984225N18142 1984 58 WP MM HOLLY 1984-08-22 09:00:00 TS 41.1336 137.146 main 241 182 _PPP__________ -1 41.3265 136.656 3 982 0 8 40.9265 137.424 3 48 985 41.1620 137.572 TS 42 982 2 15 40
1984225N18142 1984 58 WP MM HOLLY 1984-08-22 12:00:00 ET 41.6000 137.789 984 tokyo main 182 124 _OOO__________ -1 41.8000 137.300 6 984 0 0 0 41.3000 138.100 9 48 987 42.0000 138.500 TS 40 985 12 60
1984225N18142 1984 58 WP MM HOLLY 1984-08-22 15:00:00 ET 41.7332 138.510 main 124 69 _PP___________ -1 41.9911 138.167 6 984 0 0 41.4753 138.854 9 48 987 TS 11 80
1984225N18142 1984 58 WP MM HOLLY 1984-08-22 18:00:00 ET 41.7857 139.214 984 tokyo main 69 33 _OO___________ -1 42.0000 139.000 6 984 0 0 0 41.5000 139.500 9 48 988 9 83
1984225N18142 1984 58 WP MM HOLLY 1984-08-22 21:00:00 ET 41.8425 139.675 main 33 8 _PP___________ -1 42.0139 139.553 6 986 0 0 41.4997 139.919 9 43 989 6 82
1984225N18142 1984 58 WP MM HOLLY 1984-08-23 00:00:00 ET 41.8750 140.050 988 tokyo main 0 0 _OO___________ -1 42.0000 140.000 6 988 0 0 0 41.5000 140.200 9 38 990 6 76
1984225N18142 1984 58 WP MM HOLLY 1984-08-23 03:00:00 ET 41.9959 140.482 main 0 0 _P____________ -1 41.9959 140.482 6 988 0 0 9 7 80
1984225N18142 1984 58 WP MM HOLLY 1984-08-23 06:00:00 ET 42.0000 141.000 988 tokyo main 8 _O____________ -1 42.0000 141.000 6 988 0 0 0 8 89

デジタル台風データ・検索

IBTrACS Databaseについて

本データベースは、米国NOAAが公開する1842年以降の世界の熱帯低気圧のベストトラックデータアーカイブInternational Best Track Archive for Climate Stewardship (IBTrACS)を、ウェブで閲覧しやすい形式に変換したものです。

最終更新日:2021-10-21